| time (UTC) | temp F | wind direction | speed MPH | gust MPH | rain 1hr in | rain 24hr in | rain mn in | humidity % | barometer mb |
| 20260505101604 | 40 | 287 | 0.0 | 2.0 | 0.00 | 0.01 | 0.00 | 71 | 1003.9 |
| 20260505100046 | 40 | 287 | 0.0 | 1.0 | 0.00 | 0.01 | 0.00 | 71 | 1003.8 |
| 20260505094503 | 41 | 287 | 0.0 | 2.0 | 0.00 | 0.01 | 0.00 | 68 | 1003.8 |
| 20260505093105 | 41 | 287 | 0.0 | 2.0 | 0.00 | 0.01 | 0.00 | 64 | 1003.9 |
| 20260505091610 | 41 | 263 | 0.0 | 2.0 | 0.00 | 0.01 | 0.00 | 65 | 1003.6 |
| 20260505090012 | 42 | 263 | 1.0 | 3.0 | 0.00 | 0.01 | 0.00 | 63 | 1003.7 |
| 20260505084616 | 43 | 281 | 1.0 | 2.0 | 0.00 | 0.01 | 0.00 | 60 | 1003.0 |
| 20260505083102 | 44 | 277 | 1.0 | 3.0 | 0.00 | 0.01 | 0.00 | 59 | 1002.6 |
| 20260505081509 | 44 | 276 | 1.0 | 3.0 | 0.00 | 0.01 | 0.00 | 58 | 1002.2 |
| 20260505080112 | 45 | 268 | 1.0 | 5.0 | 0.00 | 0.01 | 0.00 | 55 | 1002.0 |
| 20260505074522 | 45 | 288 | 1.0 | 4.0 | 0.00 | 0.01 | 0.00 | 55 | 1001.8 |
| 20260505073008 | 47 | 313 | 2.0 | 8.0 | 0.00 | 0.01 | 0.00 | 51 | 1001.8 |
| 20260505071616 | 47 | 346 | 3.0 | 11.0 | 0.00 | 0.01 | 0.00 | 51 | 1001.9 |
| 20260505070040 | 48 | 282 | 4.0 | 11.0 | 0.00 | 0.01 | 0.00 | 51 | 1001.5 |
| 20260505064504 | 48 | 288 | 5.0 | 10.0 | 0.00 | 0.01 | 0.00 | 52 | 1001.3 |
| 20260505063107 | 49 | 278 | 3.0 | 12.0 | 0.00 | 0.01 | 0.00 | 53 | 1001.4 |
| 20260505061550 | 49 | 300 | 2.0 | 8.0 | 0.00 | 0.01 | 0.00 | 54 | 1001.2 |
| 20260505060020 | 50 | 302 | 3.0 | 10.0 | 0.00 | 0.01 | 0.00 | 52 | 1001.0 |
| 20260505054610 | 51 | 348 | 2.0 | 8.0 | 0.00 | 0.01 | 0.00 | 52 | 1000.8 |
| 20260505053048 | 51 | 288 | 2.0 | 5.0 | 0.00 | 0.01 | 0.00 | 52 | 1000.8 |
| 20260505051514 | 52 | 303 | 2.0 | 9.0 | 0.00 | 0.01 | 0.00 | 51 | 1000.2 |
| 20260505050114 | 52 | 322 | 2.0 | 7.0 | 0.00 | 0.01 | 0.00 | 52 | 999.7 |
| 20260505041604 | 55 | 360 | 3.0 | 9.0 | 0.00 | 0.01 | 0.01 | 46 | 999.1 |
| 20260505040023 | 55 | 272 | 4.0 | 9.0 | 0.00 | 0.01 | 0.01 | 45 | 999.1 |
| 20260505034612 | 56 | 264 | 3.0 | 8.0 | 0.00 | 0.01 | 0.01 | 44 | 998.6 |
| 20260505033055 | 57 | 287 | 4.0 | 9.0 | 0.00 | 0.01 | 0.01 | 41 | 998.5 |
| 20260505031517 | 57 | 275 | 3.0 | 10.0 | 0.00 | 0.01 | 0.01 | 40 | 998.1 |
| 20260505030133 | 58 | 279 | 3.0 | 9.0 | 0.00 | 0.01 | 0.01 | 41 | 997.9 |
| 20260505024556 | 58 | 263 | 2.0 | 7.0 | 0.00 | 0.01 | 0.01 | 44 | 997.0 |
| 20260505023035 | 59 | 296 | 3.0 | 9.0 | 0.00 | 0.01 | 0.01 | 44 | 997.2 |
| 20260505021617 | 60 | 302 | 4.0 | 11.0 | 0.00 | 0.01 | 0.01 | 42 | 996.9 |
| 20260505014529 | 62 | 278 | 6.0 | 13.0 | 0.00 | 0.01 | 0.01 | 41 | 995.9 |
| 20260505013113 | 62 | 293 | 5.0 | 10.0 | 0.00 | 0.01 | 0.01 | 43 | 995.7 |
| 20260505011559 | 63 | 288 | 4.0 | 10.0 | 0.00 | 0.01 | 0.01 | 45 | 995.3 |
| 20260505010018 | 63 | 280 | 3.0 | 5.0 | 0.00 | 0.01 | 0.01 | 43 | 994.9 |
| 20260505004610 | 65 | 287 | 3.0 | 7.0 | 0.00 | 0.01 | 0.01 | 42 | 994.5 |
| 20260505003059 | 66 | 309 | 4.0 | 8.0 | 0.00 | 0.01 | 0.01 | 39 | 994.4 |
| 20260505001520 | 67 | 293 | 3.0 | 8.0 | 0.00 | 0.01 | 0.01 | 39 | 994.3 |
| 20260505000120 | 69 | 279 | 6.0 | 11.0 | 0.00 | 0.01 | 0.01 | 38 | 994.0 |
| 20260504234552 | 71 | 347 | 3.0 | 6.0 | 0.01 | 0.01 | 0.01 | 43 | 993.7 |
| 20260504233037 | 71 | 287 | 3.0 | 6.0 | 0.01 | 0.01 | 0.01 | 44 | 993.6 |
| 20260504231501 | 71 | 308 | 4.0 | 11.0 | 0.01 | 0.01 | 0.01 | 48 | 993.6 |
| 20260504230105 | 73 | 261 | 7.0 | 13.0 | 0.01 | 0.01 | 0.01 | 47 | 993.5 |
| 20260504224538 | 74 | 278 | 9.0 | 15.0 | 0.00 | 0.00 | 0.00 | 38 | 993.5 |
| 20260504223003 | 75 | 267 | 9.0 | 17.0 | 0.00 | 0.00 | 0.00 | 36 | 993.1 |
| 20260504221604 | 75 | 236 | 10.0 | 22.0 | 0.00 | 0.00 | 0.00 | 36 | 993.2 |
| 20260504220048 | 77 | 240 | 12.0 | 20.0 | 0.00 | 0.00 | 0.00 | 33 | 993.1 |
| 20260504214505 | 77 | 198 | 10.0 | 21.0 | 0.00 | 0.00 | 0.00 | 36 | 993.2 |
| 20260504213110 | 76 | 266 | 10.0 | 18.0 | 0.00 | 0.00 | 0.00 | 35 | 993.3 |
| 20260504211634 | 76 | 232 | 11.0 | 21.0 | 0.00 | 0.00 | 0.00 | 36 | 993.4 |
| 20260504210018 | 77 | 240 | 12.0 | 20.0 | 0.00 | 0.00 | 0.00 | 36 | 993.5 |
| 20260504204608 | 76 | 253 | 11.0 | 23.0 | 0.00 | 0.00 | 0.00 | 36 | 993.9 |
| 20260504203052 | 76 | 225 | 14.0 | 25.0 | 0.00 | 0.00 | 0.00 | 34 | 993.9 |
| 20260504201540 | 76 | 249 | 15.0 | 27.0 | 0.00 | 0.00 | 0.00 | 36 | 994.1 |
| 20260504200005 | 76 | 261 | 13.0 | 26.0 | 0.00 | 0.00 | 0.00 | 34 | 994.3 |
| 20260504194557 | 75 | 246 | 15.0 | 22.0 | 0.00 | 0.00 | 0.00 | 34 | 994.4 |
| 20260504193015 | 75 | 216 | 14.0 | 24.0 | 0.00 | 0.00 | 0.00 | 33 | 994.5 |
| 20260504191618 | 76 | 221 | 14.0 | 26.0 | 0.00 | 0.00 | 0.00 | 34 | 994.6 |
| 20260504190110 | 77 | 234 | 13.0 | 24.0 | 0.00 | 0.00 | 0.00 | 33 | 994.6 |
| 20260504184512 | 76 | 244 | 11.0 | 24.0 | 0.00 | 0.00 | 0.00 | 35 | 994.7 |
| 20260504183116 | 76 | 275 | 11.0 | 21.0 | 0.00 | 0.00 | 0.00 | 36 | 994.6 |
| 20260504181602 | 75 | 269 | 11.0 | 20.0 | 0.00 | 0.00 | 0.00 | 33 | 994.8 |
| 20260504180018 | 75 | 225 | 11.0 | 25.0 | 0.00 | 0.00 | 0.00 | 37 | 994.9 |
| 20260504174611 | 75 | 271 | 12.0 | 23.0 | 0.00 | 0.00 | 0.00 | 35 | 995.0 |
| 20260504173053 | 74 | 202 | 13.0 | 26.0 | 0.00 | 0.00 | 0.00 | 33 | 995.2 |
| 20260504171510 | 74 | 254 | 12.0 | 25.0 | 0.00 | 0.00 | 0.00 | 35 | 995.5 |
| 20260504170111 | 73 | 209 | 12.0 | 22.0 | 0.00 | 0.00 | 0.00 | 34 | 995.7 |
| 20260504120120 | 50 | 193 | 5.0 | 10.0 | 0.00 | 0.00 | 0.00 | 74 | 999.5 |
| 20260504110105 | 38 | 234 | 0.0 | 0.0 | 0.00 | 0.00 | 0.00 | 91 | 999.4 |